Time;durP1;ratioP1;P1;durP2;ratioP2;P2;SDS_P1;SDS_P2;PMS_P1;PMS_P2;Temp;Humidity;BMP_temperature;BMP_pressure;BME280_temperature;BME280_humidity;BME280_pressure;Samples;Min_cycle;Max_cycle;Signal;HPM_P1;HPM_P2
2023/08/16 00:00:51;;;;;;;7.70;3.47;;;;;;;;;;5043359;28;20041;-70
2023/08/16 00:03:16;;;;;;;7.43;4.03;;;;;;;;;;5043601;28;20037;-70
2023/08/16 00:05:42;;;;;;;7.00;3.95;;;;;;;;;;5043899;28;20029;-70
2023/08/16 00:08:07;;;;;;;6.32;4.18;;;;;;;;;;5043590;28;20016;-71
2023/08/16 00:10:33;;;;;;;6.57;4.00;;;;;;;;;;5043463;28;20037;-70
2023/08/16 00:12:58;;;;;;;8.80;3.78;;;;;;;;;;5043724;28;20043;-70
2023/08/16 00:15:25;;;;;;;6.57;3.75;;;;;;;;;;5042552;28;20029;-70
2023/08/16 00:17:50;;;;;;;6.32;3.10;;;;;;;;;;5043891;28;20025;-70
2023/08/16 00:20:17;;;;;;;6.60;3.50;;;;;;;;;;5043607;28;20070;-70
2023/08/16 00:22:42;;;;;;;4.80;2.88;;;;;;;;;;5043106;28;20080;-70
2023/08/16 00:25:08;;;;;;;5.95;2.92;;;;;;;;;;5018239;28;20116;-71
2023/08/16 00:27:34;;;;;;;6.80;2.75;;;;;;;;;;5021964;28;20056;-70
2023/08/16 00:29:59;;;;;;;5.22;2.80;;;;;;;;;;5024405;28;20041;-70
2023/08/16 00:32:24;;;;;;;5.63;3.08;;;;;;;;;;5027824;28;20441;-70
2023/08/16 00:34:50;;;;;;;4.20;2.60;;;;;;;;;;5064821;28;20698;-70
2023/08/16 00:37:15;;;;;;;7.97;3.00;;;;;;;;;;5038468;28;20029;-70
2023/08/16 00:39:41;;;;;;;6.95;3.00;;;;;;;;;;5028804;28;20423;-70
2023/08/16 00:42:06;;;;;;;5.45;3.10;;;;;;;;;;5011679;28;20435;-70
2023/08/16 00:44:32;;;;;;;5.38;3.35;;;;;;;;;;5010198;28;20089;-70
2023/08/16 00:46:58;;;;;;;6.00;3.20;;;;;;;;;;5015354;28;20046;-70
2023/08/16 00:49:23;;;;;;;6.32;2.90;;;;;;;;;;5016100;28;20030;-70
2023/08/16 00:51:49;;;;;;;4.93;2.80;;;;;;;;;;5011572;28;20080;-71
2023/08/16 00:54:14;;;;;;;5.15;2.72;;;;;;;;;;5041375;28;20041;-70
2023/08/16 00:56:40;;;;;;;4.78;3.03;;;;;;;;;;5014736;28;20099;-70
2023/08/16 00:59:05;;;;;;;5.28;3.25;;;;;;;;;;5018892;28;20098;-70
2023/08/16 01:01:31;;;;;;;8.52;3.70;;;;;;;;;;5022996;28;20037;-70
2023/08/16 01:03:56;;;;;;;5.15;3.50;;;;;;;;;;5022879;28;20038;-70
2023/08/16 01:06:23;;;;;;;7.50;4.07;;;;;;;;;;5021468;28;20422;-70
2023/08/16 01:08:49;;;;;;;7.90;3.90;;;;;;;;;;5027154;28;20029;-70
2023/08/16 01:11:25;;;;;;;5.97;4.32;;;;;;;;;;5027428;28;20021;-71
2023/08/16 01:14:00;;;;;;;7.13;3.97;;;;;;;;;;5026183;28;20515;-70
2023/08/16 01:16:27;;;;;;;7.75;4.30;;;;;;;;;;5041251;28;20033;-70
2023/08/16 01:18:54;;;;;;;7.95;4.63;;;;;;;;;;5046846;28;20699;-71
2023/08/16 01:21:20;;;;;;;9.15;5.18;;;;;;;;;;5028466;28;20514;-71
2023/08/16 01:23:53;;;;;;;13.57;5.85;;;;;;;;;;5024710;28;20024;-70
2023/08/16 01:26:37;;;;;;;12.18;6.18;;;;;;;;;;5019891;28;20507;-71
2023/08/16 01:29:04;;;;;;;9.82;5.78;;;;;;;;;;5014946;28;20029;-70
2023/08/16 01:31:34;;;;;;;9.57;5.63;;;;;;;;;;5024306;28;20075;-70
2023/08/16 01:33:59;;;;;;;9.23;5.85;;;;;;;;;;5037584;28;20033;-70
2023/08/16 01:36:26;;;;;;;11.60;5.82;;;;;;;;;;5046349;28;20406;-70
2023/08/16 01:38:52;;;;;;;11.00;6.00;;;;;;;;;;5059204;28;20454;-70
2023/08/16 01:41:25;;;;;;;10.57;5.55;;;;;;;;;;5046958;28;20017;-70
2023/08/16 01:43:52;;;;;;;11.90;5.93;;;;;;;;;;5046185;28;20029;-70
2023/08/16 01:46:19;;;;;;;9.57;5.63;;;;;;;;;;5046462;28;20114;-70
2023/08/16 01:48:46;;;;;;;10.70;5.88;;;;;;;;;;5046068;28;20040;-70
2023/08/16 01:51:12;;;;;;;11.40;6.10;;;;;;;;;;5043783;28;20045;-70
2023/08/16 01:53:37;;;;;;;9.30;5.03;;;;;;;;;;5056890;28;20032;-70
2023/08/16 01:56:03;;;;;;;8.73;5.72;;;;;;;;;;5056605;28;20028;-70
2023/08/16 01:58:29;;;;;;;8.45;5.40;;;;;;;;;;5059915;28;20025;-70
2023/08/16 02:00:54;;;;;;;9.88;5.65;;;;;;;;;;5071549;28;20089;-70
2023/08/16 02:03:20;;;;;;;11.18;5.90;;;;;;;;;;5049094;28;20021;-70
2023/08/16 02:05:45;;;;;;;8.98;5.70;;;;;;;;;;5044077;28;20021;-70
2023/08/16 02:08:10;;;;;;;9.85;6.10;;;;;;;;;;5046093;28;20081;-70
2023/08/16 02:10:37;;;;;;;12.43;5.80;;;;;;;;;;5045576;28;20126;-70
2023/08/16 02:13:03;;;;;;;9.20;5.90;;;;;;;;;;5050492;28;20035;-70
2023/08/16 02:15:28;;;;;;;10.80;5.95;;;;;;;;;;5050535;28;20032;-70
2023/08/16 02:17:53;;;;;;;9.68;6.65;;;;;;;;;;5045623;28;20036;-70
2023/08/16 02:20:19;;;;;;;13.90;6.20;;;;;;;;;;5045361;28;20017;-71
2023/08/16 02:22:44;;;;;;;13.43;5.70;;;;;;;;;;5044850;28;20116;-70
2023/08/16 02:25:11;;;;;;;10.88;6.13;;;;;;;;;;5044882;28;20033;-71
2023/08/16 02:27:36;;;;;;;13.02;6.10;;;;;;;;;;5057017;28;20037;-70
2023/08/16 02:30:03;;;;;;;11.18;6.22;;;;;;;;;;5041422;28;20060;-70
2023/08/16 02:32:28;;;;;;;12.45;6.00;;;;;;;;;;5050971;28;20624;-70
2023/08/16 02:34:53;;;;;;;10.32;6.47;;;;;;;;;;5045153;28;20167;-70
2023/08/16 02:37:19;;;;;;;12.75;6.45;;;;;;;;;;5045237;28;20036;-70
2023/08/16 02:39:44;;;;;;;10.55;6.15;;;;;;;;;;5044641;28;20125;-70
2023/08/16 02:42:09;;;;;;;15.27;6.07;;;;;;;;;;5044683;28;20025;-70
2023/08/16 02:44:35;;;;;;;10.57;6.00;;;;;;;;;;5045285;28;20550;-70
2023/08/16 02:47:00;;;;;;;13.82;6.25;;;;;;;;;;5045144;28;20045;-71
2023/08/16 02:49:26;;;;;;;13.38;6.22;;;;;;;;;;5044372;28;20448;-70
2023/08/16 02:51:51;;;;;;;9.75;6.00;;;;;;;;;;5052051;28;20037;-70
2023/08/16 02:54:16;;;;;;;10.93;6.13;;;;;;;;;;5048997;28;20083;-70
2023/08/16 02:56:42;;;;;;;10.70;6.03;;;;;;;;;;5046214;28;20071;-70
2023/08/16 02:59:14;;;;;;;10.57;5.88;;;;;;;;;;5050057;28;20601;-70
2023/08/16 03:01:39;;;;;;;10.02;5.65;;;;;;;;;;5044892;28;20589;-70
2023/08/16 03:04:05;;;;;;;12.27;6.00;;;;;;;;;;5044198;28;20028;-70
2023/08/16 03:06:30;;;;;;;12.80;5.78;;;;;;;;;;5041818;28;20039;-70
2023/08/16 03:08:56;;;;;;;11.00;5.70;;;;;;;;;;5034500;28;20029;-70
2023/08/16 03:11:21;;;;;;;11.75;5.88;;;;;;;;;;5053985;28;20021;-70
2023/08/16 03:13:46;;;;;;;10.50;5.88;;;;;;;;;;5022149;28;20076;-70
2023/08/16 03:16:12;;;;;;;10.93;6.00;;;;;;;;;;5025371;28;20037;-70
2023/08/16 03:18:37;;;;;;;13.32;5.75;;;;;;;;;;5025263;28;20076;-70
2023/08/16 03:21:03;;;;;;;10.35;5.20;;;;;;;;;;5024914;28;20084;-70
2023/08/16 03:23:28;;;;;;;11.43;5.90;;;;;;;;;;5026348;28;20394;-70
2023/08/16 03:25:53;;;;;;;11.82;5.90;;;;;;;;;;5032931;28;20037;-70
2023/08/16 03:28:19;;;;;;;12.23;5.68;;;;;;;;;;5034019;28;20606;-70
2023/08/16 03:30:44;;;;;;;10.05;5.88;;;;;;;;;;5014834;28;20065;-70
2023/08/16 03:33:10;;;;;;;9.80;5.65;;;;;;;;;;5006084;28;20087;-70
2023/08/16 03:35:35;;;;;;;11.27;5.85;;;;;;;;;;5024884;28;20025;-71
2023/08/16 03:38:00;;;;;;;11.00;5.75;;;;;;;;;;5023983;28;20112;-69
2023/08/16 03:40:26;;;;;;;12.48;5.97;;;;;;;;;;5024139;28;20034;-70
2023/08/16 03:42:51;;;;;;;11.15;5.45;;;;;;;;;;5005202;28;20049;-70
2023/08/16 03:45:17;;;;;;;9.10;5.63;;;;;;;;;;5024233;28;20037;-70
2023/08/16 03:47:43;;;;;;;11.50;5.70;;;;;;;;;;5023869;28;20119;-70
2023/08/16 03:50:09;;;;;;;11.90;6.07;;;;;;;;;;5024173;28;20029;-70
2023/08/16 03:52:34;;;;;;;11.25;6.55;;;;;;;;;;5022626;28;20033;-70
2023/08/16 03:54:59;;;;;;;12.55;5.75;;;;;;;;;;5015887;28;20450;-70
2023/08/16 03:57:25;;;;;;;10.07;5.82;;;;;;;;;;4999074;28;20070;-70
2023/08/16 03:59:52;;;;;;;12.82;6.35;;;;;;;;;;4986377;28;20042;-70
2023/08/16 04:02:19;;;;;;;14.73;6.60;;;;;;;;;;5004462;28;20076;-70
2023/08/16 04:04:45;;;;;;;12.95;6.15;;;;;;;;;;5003596;28;20046;-70
2023/08/16 04:07:11;;;;;;;11.90;6.00;;;;;;;;;;4990413;28;20065;-70
2023/08/16 04:09:36;;;;;;;11.18;6.13;;;;;;;;;;5002261;28;20049;-70
2023/08/16 04:12:02;;;;;;;13.65;6.38;;;;;;;;;;5000341;28;20117;-70
2023/08/16 04:14:27;;;;;;;10.65;5.80;;;;;;;;;;4996330;28;20455;-71
2023/08/16 04:16:52;;;;;;;11.25;5.85;;;;;;;;;;5005069;28;20053;-70
2023/08/16 04:19:18;;;;;;;13.02;6.13;;;;;;;;;;4993383;28;20038;-70
2023/08/16 04:21:43;;;;;;;13.40;6.47;;;;;;;;;;4996711;28;20042;-70
2023/08/16 04:24:08;;;;;;;15.45;6.60;;;;;;;;;;4994467;28;20818;-70
2023/08/16 04:26:34;;;;;;;9.88;5.95;;;;;;;;;;4990469;28;20694;-70
2023/08/16 04:28:59;;;;;;;14.50;6.75;;;;;;;;;;4993339;28;20030;-70
2023/08/16 04:31:24;;;;;;;12.38;6.15;;;;;;;;;;5034373;28;20030;-70
2023/08/16 04:33:50;;;;;;;13.05;6.65;;;;;;;;;;5034164;28;20029;-70
2023/08/16 04:36:16;;;;;;;12.70;6.65;;;;;;;;;;5043232;28;20547;-70
2023/08/16 04:38:41;;;;;;;14.35;7.25;;;;;;;;;;5042985;28;20031;-70
2023/08/16 04:41:07;;;;;;;14.25;6.95;;;;;;;;;;5043285;28;20024;-70
2023/08/16 04:43:32;;;;;;;15.63;7.40;;;;;;;;;;5042571;28;20040;-70
2023/08/16 04:45:57;;;;;;;15.52;7.63;;;;;;;;;;5043472;28;20037;-70
2023/08/16 04:48:23;;;;;;;13.65;7.22;;;;;;;;;;5044100;28;20029;-70
2023/08/16 04:50:48;;;;;;;13.02;6.85;;;;;;;;;;5047481;28;20028;-70
2023/08/16 04:53:13;;;;;;;15.20;7.57;;;;;;;;;;5053553;28;20029;-70
2023/08/16 04:55:39;;;;;;;14.63;7.55;;;;;;;;;;5045865;28;20506;-71
2023/08/16 04:58:04;;;;;;;14.07;7.25;;;;;;;;;;5042496;28;20120;-70
2023/08/16 05:00:29;;;;;;;14.18;7.68;;;;;;;;;;5042862;28;20052;-70
2023/08/16 05:02:55;;;;;;;15.20;7.90;;;;;;;;;;5043020;28;20082;-70
2023/08/16 05:05:20;;;;;;;12.55;7.43;;;;;;;;;;5043398;28;20398;-70
2023/08/16 05:07:46;;;;;;;12.43;6.72;;;;;;;;;;5042809;28;20036;-70
2023/08/16 05:10:11;;;;;;;15.73;7.68;;;;;;;;;;5042695;28;20061;-71
2023/08/16 05:12:36;;;;;;;13.38;6.97;;;;;;;;;;5042968;28;20269;-70
2023/08/16 05:15:02;;;;;;;13.57;6.80;;;;;;;;;;5041982;28;20040;-70
2023/08/16 05:17:27;;;;;;;16.05;7.47;;;;;;;;;;5042402;28;20079;-70
2023/08/16 05:19:53;;;;;;;13.60;7.07;;;;;;;;;;5022331;28;20040;-70
2023/08/16 05:22:19;;;;;;;14.77;7.40;;;;;;;;;;5022166;28;20045;-70
2023/08/16 05:24:45;;;;;;;11.20;6.88;;;;;;;;;;5022824;28;20124;-70
2023/08/16 05:27:12;;;;;;;15.77;7.57;;;;;;;;;;5023091;28;20029;-70
2023/08/16 05:29:41;;;;;;;15.55;8.18;;;;;;;;;;5028400;28;20095;-70
2023/08/16 05:32:06;;;;;;;14.48;7.63;;;;;;;;;;5040246;28;20021;-70
2023/08/16 05:34:32;;;;;;;15.70;7.82;;;;;;;;;;5042590;28;20033;-71
2023/08/16 05:36:57;;;;;;;16.13;7.22;;;;;;;;;;5042382;28;20529;-70
2023/08/16 05:39:23;;;;;;;13.95;7.65;;;;;;;;;;5042153;28;20032;-70
2023/08/16 05:41:48;;;;;;;13.60;7.70;;;;;;;;;;5042880;28;20495;-70
2023/08/16 05:44:14;;;;;;;13.85;7.28;;;;;;;;;;5040383;28;20017;-70
2023/08/16 05:46:39;;;;;;;13.82;7.18;;;;;;;;;;5024008;28;20059;-70
2023/08/16 05:49:05;;;;;;;14.88;7.05;;;;;;;;;;5022141;28;20038;-70
2023/08/16 05:51:32;;;;;;;18.00;7.30;;;;;;;;;;5030076;28;20090;-70
2023/08/16 05:53:57;;;;;;;14.73;7.47;;;;;;;;;;5036804;28;20045;-70
2023/08/16 05:56:23;;;;;;;15.30;7.70;;;;;;;;;;5013538;28;20585;-70
2023/08/16 05:58:48;;;;;;;15.00;7.50;;;;;;;;;;5037537;28;20037;-70
2023/08/16 06:01:14;;;;;;;15.70;7.90;;;;;;;;;;5039514;28;20033;-70
2023/08/16 06:03:39;;;;;;;18.63;7.93;;;;;;;;;;5043488;28;20029;-70
2023/08/16 06:06:04;;;;;;;13.95;7.40;;;;;;;;;;5059300;28;20461;-70
2023/08/16 06:08:30;;;;;;;16.58;7.53;;;;;;;;;;5046023;28;20032;-70
2023/08/16 06:10:55;;;;;;;14.80;7.50;;;;;;;;;;5034555;28;20506;-70
2023/08/16 06:13:20;;;;;;;13.00;7.20;;;;;;;;;;5044741;28;20135;-70
2023/08/16 06:15:46;;;;;;;16.30;7.85;;;;;;;;;;5047147;28;20033;-70
2023/08/16 06:18:12;;;;;;;14.88;7.47;;;;;;;;;;5045900;28;20034;-70
2023/08/16 06:20:38;;;;;;;14.43;7.95;;;;;;;;;;5034632;28;20025;-69
2023/08/16 06:23:03;;;;;;;17.23;7.22;;;;;;;;;;5031288;28;20509;-69
2023/08/16 06:25:29;;;;;;;19.02;7.20;;;;;;;;;;5033617;28;20064;-70
2023/08/16 06:27:54;;;;;;;14.93;8.38;;;;;;;;;;5039945;28;20033;-70
2023/08/16 06:30:20;;;;;;;13.90;7.32;;;;;;;;;;5043234;28;20057;-70
2023/08/16 06:32:45;;;;;;;15.65;7.75;;;;;;;;;;5035781;28;20516;-69
2023/08/16 06:35:11;;;;;;;16.85;8.05;;;;;;;;;;5030470;28;20031;-69
2023/08/16 06:37:38;;;;;;;23.27;8.15;;;;;;;;;;5029827;28;20540;-70
2023/08/16 06:40:04;;;;;;;15.50;8.15;;;;;;;;;;5032325;28;20488;-69
2023/08/16 06:42:31;;;;;;;12.98;7.78;;;;;;;;;;5036095;28;20029;-69
2023/08/16 06:44:56;;;;;;;13.82;8.32;;;;;;;;;;5040057;28;20071;-70
2023/08/16 06:47:21;;;;;;;18.60;7.80;;;;;;;;;;5045234;28;20029;-70
2023/08/16 06:49:47;;;;;;;15.68;7.60;;;;;;;;;;5039624;28;20056;-70
2023/08/16 06:52:12;;;;;;;14.93;8.50;;;;;;;;;;5034137;28;20529;-70
2023/08/16 06:54:38;;;;;;;20.33;8.80;;;;;;;;;;5039435;28;20033;-70
2023/08/16 06:57:03;;;;;;;17.65;8.77;;;;;;;;;;5041955;28;20056;-70
2023/08/16 06:59:29;;;;;;;16.20;8.98;;;;;;;;;;5051258;28;20032;-70
2023/08/16 07:01:55;;;;;;;18.95;9.23;;;;;;;;;;5036539;28;20659;-70
2023/08/16 07:04:20;;;;;;;12.75;7.88;;;;;;;;;;5035975;28;20040;-70
2023/08/16 07:06:46;;;;;;;16.38;7.35;;;;;;;;;;5036754;28;20033;-70
2023/08/16 07:09:11;;;;;;;16.83;8.23;;;;;;;;;;5037913;28;20033;-70
2023/08/16 07:11:36;;;;;;;17.05;8.68;;;;;;;;;;5033377;28;20104;-70
2023/08/16 07:14:02;;;;;;;17.80;8.95;;;;;;;;;;5041947;28;20530;-70
2023/08/16 07:16:28;;;;;;;14.00;7.70;;;;;;;;;;5031775;28;20068;-69
2023/08/16 07:18:53;;;;;;;12.77;7.47;;;;;;;;;;5040745;28;20043;-70
2023/08/16 07:21:18;;;;;;;16.13;8.00;;;;;;;;;;5043661;28;20445;-70
2023/08/16 07:23:44;;;;;;;11.48;7.38;;;;;;;;;;5044095;28;20025;-70
2023/08/16 07:26:10;;;;;;;17.95;8.73;;;;;;;;;;5043505;28;20516;-70
2023/08/16 07:28:35;;;;;;;16.75;7.95;;;;;;;;;;5047020;28;20417;-70
2023/08/16 07:31:01;;;;;;;16.38;7.63;;;;;;;;;;5049043;28;20056;-70
2023/08/16 07:33:27;;;;;;;16.30;7.88;;;;;;;;;;5043502;28;20164;-70
2023/08/16 07:35:59;;;;;;;14.98;7.93;;;;;;;;;;5041657;28;20082;-70
2023/08/16 07:38:24;;;;;;;22.58;9.63;;;;;;;;;;5033352;28;20058;-70
2023/08/16 07:40:49;;;;;;;14.88;7.97;;;;;;;;;;5030642;28;20452;-70
2023/08/16 07:43:15;;;;;;;12.43;7.47;;;;;;;;;;5040842;28;20048;-70
2023/08/16 07:45:41;;;;;;;15.77;8.77;;;;;;;;;;5052835;28;20043;-70
2023/08/16 07:48:06;;;;;;;13.38;6.80;;;;;;;;;;5043559;28;20043;-70
2023/08/16 07:50:31;;;;;;;18.60;9.00;;;;;;;;;;5041973;28;20048;-70
2023/08/16 07:52:57;;;;;;;11.23;7.13;;;;;;;;;;5043883;28;20059;-71
2023/08/16 07:55:23;;;;;;;15.95;7.38;;;;;;;;;;5042575;28;20041;-71
2023/08/16 07:57:49;;;;;;;14.90;7.68;;;;;;;;;;5043172;28;20037;-70
2023/08/16 08:00:14;;;;;;;13.85;8.68;;;;;;;;;;5034723;28;20044;-71
2023/08/16 08:02:40;;;;;;;12.63;7.70;;;;;;;;;;5043724;28;20092;-70
2023/08/16 08:05:06;;;;;;;16.55;8.43;;;;;;;;;;5040362;28;20044;-70
2023/08/16 08:07:32;;;;;;;11.38;7.07;;;;;;;;;;5030167;28;20040;-71
2023/08/16 08:09:58;;;;;;;16.08;8.10;;;;;;;;;;5042521;28;20041;-71
2023/08/16 08:12:24;;;;;;;14.95;6.88;;;;;;;;;;5041110;28;20024;-70
2023/08/16 08:14:49;;;;;;;9.95;5.72;;;;;;;;;;5041790;28;20483;-70
2023/08/16 08:17:15;;;;;;;9.40;6.10;;;;;;;;;;5024253;28;20032;-70
2023/08/16 08:19:40;;;;;;;10.55;5.60;;;;;;;;;;5025673;28;20098;-70
2023/08/16 08:22:06;;;;;;;11.30;5.50;;;;;;;;;;5029105;28;20032;-70
2023/08/16 08:24:31;;;;;;;9.40;5.10;;;;;;;;;;5037085;28;20042;-70
2023/08/16 08:26:57;;;;;;;9.20;4.95;;;;;;;;;;5034653;28;20241;-70
2023/08/16 08:29:25;;;;;;;9.85;5.35;;;;;;;;;;5036713;28;20143;-70
2023/08/16 08:31:53;;;;;;;8.00;5.53;;;;;;;;;;5039177;28;20045;-71
2023/08/16 08:34:19;;;;;;;8.63;5.43;;;;;;;;;;5041688;28;20069;-70
2023/08/16 08:36:44;;;;;;;11.82;5.18;;;;;;;;;;5042589;28;20064;-71
2023/08/16 08:39:10;;;;;;;8.13;4.95;;;;;;;;;;5035349;28;20063;-70
2023/08/16 08:41:37;;;;;;;6.95;4.78;;;;;;;;;;5028901;28;20807;-70
2023/08/16 08:44:03;;;;;;;9.20;5.10;;;;;;;;;;5037767;28;20103;-70
2023/08/16 08:46:30;;;;;;;9.73;4.10;;;;;;;;;;5028368;28;20132;-71
2023/08/16 08:48:59;;;;;;;11.05;4.97;;;;;;;;;;5036159;28;20040;-70
2023/08/16 08:51:29;;;;;;;7.68;5.10;;;;;;;;;;5038582;28;20094;-69
2023/08/16 08:53:55;;;;;;;7.13;4.32;;;;;;;;;;5042026;28;20032;-70
2023/08/16 08:56:21;;;;;;;10.20;4.65;;;;;;;;;;5041203;28;20203;-70
2023/08/16 08:58:47;;;;;;;6.75;3.90;;;;;;;;;;5035178;28;20033;-70
2023/08/16 09:01:13;;;;;;;6.55;3.53;;;;;;;;;;5038271;28;20047;-70
2023/08/16 09:03:43;;;;;;;6.38;3.95;;;;;;;;;;5039236;28;20029;-70
2023/08/16 09:06:09;;;;;;;9.10;4.28;;;;;;;;;;5031415;28;20045;-69
2023/08/16 09:08:36;;;;;;;6.22;3.50;;;;;;;;;;5033846;28;20107;-70
2023/08/16 09:11:02;;;;;;;5.13;3.53;;;;;;;;;;5048772;28;20028;-70
2023/08/16 09:13:28;;;;;;;6.38;3.83;;;;;;;;;;5045272;28;20041;-70
2023/08/16 09:15:54;;;;;;;6.57;3.40;;;;;;;;;;5039914;28;20037;-70
2023/08/16 09:18:21;;;;;;;10.32;4.07;;;;;;;;;;5038296;28;20033;-70
2023/08/16 09:20:48;;;;;;;5.50;3.40;;;;;;;;;;5044032;28;20597;-70
2023/08/16 09:23:14;;;;;;;6.45;3.50;;;;;;;;;;5043051;28;20021;-70
2023/08/16 09:25:40;;;;;;;12.23;3.78;;;;;;;;;;5041234;28;20124;-70
2023/08/16 09:28:12;;;;;;;7.07;3.55;;;;;;;;;;5029679;28;20123;-70
2023/08/16 09:30:37;;;;;;;8.10;3.60;;;;;;;;;;5034674;28;20182;-70
2023/08/16 09:33:03;;;;;;;9.23;4.97;;;;;;;;;;5041785;28;20413;-70
2023/08/16 09:35:30;;;;;;;6.13;3.63;;;;;;;;;;5046427;28;20032;-71
2023/08/16 09:37:59;;;;;;;11.15;4.75;;;;;;;;;;5045219;28;20120;-70
2023/08/16 09:40:25;;;;;;;9.85;4.40;;;;;;;;;;5044011;28;20033;-70
2023/08/16 09:42:52;;;;;;;8.30;3.92;;;;;;;;;;5046922;28;20040;-71
2023/08/16 09:45:34;;;;;;;15.15;6.82;;;;;;;;;;5045488;28;20502;-70
2023/08/16 09:48:00;;;;;;;12.48;6.35;;;;;;;;;;5043767;28;20047;-70
2023/08/16 09:50:32;;;;;;;9.65;4.32;;;;;;;;;;5041278;28;20519;-70
2023/08/16 09:52:58;;;;;;;10.50;3.95;;;;;;;;;;5042573;28;20071;-70
2023/08/16 09:55:30;;;;;;;8.40;4.03;;;;;;;;;;5043427;28;20498;-70
2023/08/16 09:57:59;;;;;;;6.28;3.47;;;;;;;;;;5043625;28;20867;-70
2023/08/16 10:00:30;;;;;;;6.70;2.83;;;;;;;;;;5031055;28;20546;-70
2023/08/16 10:02:56;;;;;;;4.20;2.90;;;;;;;;;;5026376;28;20120;-70
2023/08/16 10:05:24;;;;;;;4.72;2.88;;;;;;;;;;5051675;28;20147;-71
2023/08/16 10:07:50;;;;;;;6.68;2.92;;;;;;;;;;5044059;28;20033;-70
2023/08/16 10:10:16;;;;;;;5.38;2.65;;;;;;;;;;5046278;28;20045;-70
2023/08/16 10:12:43;;;;;;;4.93;2.88;;;;;;;;;;5040783;28;20461;-70
2023/08/16 10:15:09;;;;;;;8.68;2.95;;;;;;;;;;5044916;28;20432;-70
2023/08/16 10:17:45;;;;;;;6.93;3.30;;;;;;;;;;5043098;28;20029;-70
2023/08/16 10:20:24;;;;;;;7.22;3.50;;;;;;;;;;5023732;28;20037;-71
2023/08/16 10:23:00;;;;;;;5.88;3.35;;;;;;;;;;5011446;28;20100;-70
2023/08/16 10:25:30;;;;;;;8.90;3.65;;;;;;;;;;5023923;28;20038;-70
2023/08/16 10:27:58;;;;;;;7.72;3.50;;;;;;;;;;5010494;28;20052;-70
2023/08/16 10:30:24;;;;;;;6.88;3.35;;;;;;;;;;5014340;28;20045;-70
2023/08/16 10:32:57;;;;;;;8.80;3.15;;;;;;;;;;5033455;28;20029;-70
2023/08/16 10:35:23;;;;;;;7.40;3.50;;;;;;;;;;5025783;28;20049;-70
2023/08/16 10:37:51;;;;;;;8.15;3.65;;;;;;;;;;5031645;28;20093;-71
2023/08/16 10:40:18;;;;;;;7.13;4.03;;;;;;;;;;5030463;28;20037;-71
2023/08/16 10:42:59;;;;;;;6.82;3.90;;;;;;;;;;5021398;28;20044;-70
2023/08/16 10:45:33;;;;;;;7.47;3.72;;;;;;;;;;5009723;28;20056;-71
2023/08/16 10:48:08;;;;;;;8.07;3.25;;;;;;;;;;5018455;28;20049;-70
2023/08/16 10:50:34;;;;;;;5.57;2.92;;;;;;;;;;5021762;28;20112;-70
2023/08/16 10:53:00;;;;;;;6.50;2.80;;;;;;;;;;5022884;28;20124;-70
2023/08/16 10:55:26;;;;;;;4.15;2.55;;;;;;;;;;5022155;28;20046;-71
2023/08/16 10:57:52;;;;;;;6.25;2.92;;;;;;;;;;5022619;28;20973;-70
2023/08/16 11:00:18;;;;;;;3.30;2.33;;;;;;;;;;5021215;28;20043;-71
2023/08/16 11:02:47;;;;;;;3.78;2.42;;;;;;;;;;5018672;28;20034;-70
2023/08/16 11:05:19;;;;;;;5.18;3.03;;;;;;;;;;5035488;28;20020;-70
2023/08/16 11:07:45;;;;;;;4.60;2.80;;;;;;;;;;5009499;28;20041;-70
2023/08/16 11:10:10;;;;;;;5.78;3.08;;;;;;;;;;5018573;28;20403;-70
2023/08/16 11:12:36;;;;;;;4.78;2.80;;;;;;;;;;5019269;28;20038;-70
2023/08/16 11:15:01;;;;;;;4.40;2.42;;;;;;;;;;5017722;28;20048;-70
2023/08/16 11:17:28;;;;;;;3.75;2.85;;;;;;;;;;5020697;28;20579;-71
2023/08/16 11:19:54;;;;;;;3.90;2.85;;;;;;;;;;5022250;28;20060;-71
2023/08/16 11:22:22;;;;;;;4.22;2.88;;;;;;;;;;5022552;28;20411;-70
2023/08/16 11:24:49;;;;;;;4.10;2.80;;;;;;;;;;5023000;28;20120;-70
2023/08/16 11:27:23;;;;;;;7.07;3.25;;;;;;;;;;5022018;28;20033;-70
2023/08/16 11:29:50;;;;;;;3.78;2.78;;;;;;;;;;5026791;28;20620;-71
2023/08/16 11:32:16;;;;;;;3.53;2.92;;;;;;;;;;5018141;28;20031;-70
2023/08/16 11:34:41;;;;;;;4.50;2.88;;;;;;;;;;5034930;28;20041;-70
2023/08/16 11:37:07;;;;;;;4.60;2.70;;;;;;;;;;5029814;28;20047;-69
2023/08/16 11:39:33;;;;;;;6.20;2.70;;;;;;;;;;5038563;28;20055;-71
2023/08/16 11:42:00;;;;;;;5.05;2.75;;;;;;;;;;5039892;28;20040;-70
2023/08/16 11:44:25;;;;;;;4.32;2.55;;;;;;;;;;5042594;28;20028;-70
2023/08/16 11:46:51;;;;;;;5.72;2.83;;;;;;;;;;5041286;28;20032;-70
2023/08/16 11:49:21;;;;;;;3.92;3.05;;;;;;;;;;5032995;28;20071;-70
2023/08/16 11:51:47;;;;;;;6.07;2.72;;;;;;;;;;5031145;28;20472;-70
2023/08/16 11:54:21;;;;;;;7.55;3.00;;;;;;;;;;5034163;28;20041;-70
2023/08/16 11:56:47;;;;;;;4.32;2.72;;;;;;;;;;5041508;28;20031;-70
2023/08/16 11:59:26;;;;;;;5.28;2.90;;;;;;;;;;5029946;28;20096;-70
2023/08/16 12:01:54;;;;;;;4.00;3.00;;;;;;;;;;5044803;28;20033;-70
2023/08/16 12:04:23;;;;;;;4.68;2.88;;;;;;;;;;5050010;28;20029;-70
2023/08/16 12:06:49;;;;;;;5.95;3.03;;;;;;;;;;5049609;28;20048;-70
2023/08/16 12:09:16;;;;;;;3.38;2.35;;;;;;;;;;5028866;28;20052;-70
2023/08/16 12:11:41;;;;;;;5.53;2.78;;;;;;;;;;5022229;28;20111;-70
2023/08/16 12:14:06;;;;;;;4.75;2.63;;;;;;;;;;5040193;28;20334;-70
2023/08/16 12:16:32;;;;;;;6.50;2.47;;;;;;;;;;5041806;28;20745;-70
2023/08/16 12:18:58;;;;;;;7.55;2.75;;;;;;;;;;5041188;28;20036;-71
2023/08/16 12:21:23;;;;;;;4.38;3.13;;;;;;;;;;5041126;28;20033;-70
2023/08/16 12:23:49;;;;;;;5.40;3.47;;;;;;;;;;5038830;28;20028;-70
2023/08/16 12:26:15;;;;;;;5.22;2.90;;;;;;;;;;5038277;28;20029;-71
2023/08/16 12:28:41;;;;;;;7.00;3.08;;;;;;;;;;5040297;28;20099;-71
2023/08/16 12:31:06;;;;;;;5.18;2.80;;;;;;;;;;5038934;28;20076;-71
2023/08/16 12:33:32;;;;;;;3.92;2.70;;;;;;;;;;5041892;28;20044;-71
2023/08/16 12:35:58;;;;;;;5.68;3.10;;;;;;;;;;5040331;28;20047;-71
2023/08/16 12:38:24;;;;;;;4.97;2.78;;;;;;;;;;5041202;28;20039;-71
2023/08/16 12:40:49;;;;;;;6.65;3.03;;;;;;;;;;5038957;28;20725;-72
2023/08/16 12:43:15;;;;;;;6.50;3.08;;;;;;;;;;5041755;28;20082;-71
2023/08/16 12:45:40;;;;;;;5.18;2.40;;;;;;;;;;5041382;28;20067;-72
2023/08/16 12:48:06;;;;;;;8.52;2.83;;;;;;;;;;5041382;28;20033;-71
2023/08/16 12:50:31;;;;;;;5.15;3.20;;;;;;;;;;5041482;28;20127;-71
2023/08/16 12:52:58;;;;;;;5.13;3.00;;;;;;;;;;5039488;28;20982;-71
2023/08/16 12:55:23;;;;;;;7.53;2.90;;;;;;;;;;5040876;28;20037;-71
2023/08/16 12:57:49;;;;;;;4.75;2.38;;;;;;;;;;5053520;28;20045;-71
2023/08/16 13:00:14;;;;;;;3.30;2.58;;;;;;;;;;5029586;28;20087;-71
2023/08/16 13:02:40;;;;;;;3.60;2.80;;;;;;;;;;5040334;28;20556;-70
2023/08/16 13:05:07;;;;;;;4.20;2.60;;;;;;;;;;5058813;28;20577;-70
2023/08/16 13:07:33;;;;;;;4.68;2.72;;;;;;;;;;5047307;28;20098;-71
2023/08/16 13:09:59;;;;;;;5.93;2.40;;;;;;;;;;5043773;28;20530;-71
2023/08/16 13:12:24;;;;;;;5.82;3.17;;;;;;;;;;5044568;28;20052;-71
2023/08/16 13:14:49;;;;;;;4.95;2.70;;;;;;;;;;5045474;28;20441;-70
2023/08/16 13:17:15;;;;;;;4.15;2.55;;;;;;;;;;5047517;28;20033;-71
2023/08/16 13:19:40;;;;;;;4.07;2.67;;;;;;;;;;5037522;28;20030;-71
2023/08/16 13:22:06;;;;;;;4.35;2.58;;;;;;;;;;5046533;28;20044;-71
2023/08/16 13:24:31;;;;;;;5.32;2.50;;;;;;;;;;5045549;28;20064;-71
2023/08/16 13:26:57;;;;;;;6.45;2.40;;;;;;;;;;5046284;28;20078;-71
2023/08/16 13:29:22;;;;;;;3.22;2.30;;;;;;;;;;5051566;28;20114;-71
2023/08/16 13:31:48;;;;;;;4.30;2.50;;;;;;;;;;5055740;28;20319;-71
2023/08/16 13:34:13;;;;;;;4.65;2.65;;;;;;;;;;5042744;28;20041;-71
2023/08/16 13:36:38;;;;;;;3.95;3.25;;;;;;;;;;5039642;28;20536;-70
2023/08/16 13:39:04;;;;;;;4.53;2.85;;;;;;;;;;5041087;28;20057;-71
2023/08/16 13:41:30;;;;;;;7.45;3.00;;;;;;;;;;5044220;28;20065;-70
2023/08/16 13:43:56;;;;;;;4.68;2.50;;;;;;;;;;5044865;28;20518;-70
2023/08/16 13:46:21;;;;;;;5.35;2.70;;;;;;;;;;5045466;28;20395;-71
2023/08/16 13:48:46;;;;;;;3.30;2.50;;;;;;;;;;5046000;28;20047;-71
2023/08/16 13:51:12;;;;;;;4.78;3.00;;;;;;;;;;5045948;28;20033;-71
2023/08/16 13:53:37;;;;;;;8.63;2.72;;;;;;;;;;5046535;28;20029;-71
2023/08/16 13:56:04;;;;;;;5.55;3.05;;;;;;;;;;5045996;28;20044;-71
2023/08/16 13:58:31;;;;;;;3.88;2.67;;;;;;;;;;5045791;28;20133;-70
2023/08/16 14:00:56;;;;;;;3.08;2.33;;;;;;;;;;5032669;28;20029;-71
2023/08/16 14:03:22;;;;;;;9.30;3.08;;;;;;;;;;5044627;28;20044;-70
2023/08/16 14:05:47;;;;;;;6.38;2.70;;;;;;;;;;5040849;28;20139;-70
2023/08/16 14:08:13;;;;;;;7.03;2.60;;;;;;;;;;5037388;28;20071;-70
2023/08/16 14:10:38;;;;;;;4.80;2.95;;;;;;;;;;5046313;28;20039;-70
2023/08/16 14:13:04;;;;;;;7.68;3.00;;;;;;;;;;5046445;28;20029;-70
2023/08/16 14:15:30;;;;;;;4.32;2.58;;;;;;;;;;5042300;28;20095;-70
2023/08/16 14:17:55;;;;;;;5.88;2.80;;;;;;;;;;5046235;28;20020;-70
2023/08/16 14:20:21;;;;;;;3.80;2.40;;;;;;;;;;5044280;28;20015;-72
2023/08/16 14:22:46;;;;;;;6.75;3.10;;;;;;;;;;5042808;28;20472;-71
2023/08/16 14:25:12;;;;;;;4.10;2.75;;;;;;;;;;5042465;28;20124;-71
2023/08/16 14:27:37;;;;;;;3.47;2.53;;;;;;;;;;5043713;28;20395;-71
2023/08/16 14:30:03;;;;;;;6.05;3.22;;;;;;;;;;5043578;28;20124;-71